Time;durP1;ratioP1;P1;durP2;ratioP2;P2;SDS_P1;SDS_P2;PMS_P1;PMS_P2;Temp;Humidity;BMP_temperature;BMP_pressure;BME280_temperature;BME280_humidity;BME280_pressure;Samples;Min_cycle;Max_cycle;Signal;HPM_P1;HPM_P2
2021/12/27 00:00:21;;;;;;;26.55;16.08;;;-0.20;99.90;;;;;;5109885;28;20581;-66
2021/12/27 00:02:58;;;;;;;26.13;16.48;;;-0.30;99.90;;;;;;5102327;28;20052;-66
2021/12/27 00:05:23;;;;;;;24.02;16.30;;;-0.20;99.90;;;;;;5111850;28;20115;-66
2021/12/27 00:07:51;;;;;;;24.70;17.05;;;-0.40;99.90;;;;;;5109022;28;20622;-65
2021/12/27 00:10:18;;;;;;;25.75;16.17;;;-0.40;99.90;;;;;;5106726;28;20059;-66
2021/12/27 00:12:44;;;;;;;26.25;16.02;;;-0.40;99.90;;;;;;5111603;28;20135;-66
2021/12/27 00:15:11;;;;;;;25.80;15.73;;;-0.30;99.90;;;;;;5107254;28;20087;-65
2021/12/27 00:17:39;;;;;;;26.00;17.23;;;-0.30;99.90;;;;;;5113874;28;20101;-66
2021/12/27 00:20:06;;;;;;;27.80;17.02;;;-0.30;99.90;;;;;;5114432;28;20076;-65
2021/12/27 00:22:32;;;;;;;29.30;16.67;;;-0.40;99.90;;;;;;5108119;28;20126;-65
2021/12/27 00:24:57;;;;;;;27.35;17.30;;;-0.40;99.90;;;;;;5107590;28;20052;-66
2021/12/27 00:27:24;;;;;;;26.90;17.30;;;-0.40;99.90;;;;;;5110169;28;20077;-66
2021/12/27 00:29:51;;;;;;;27.33;17.10;;;-0.30;99.90;;;;;;5111113;28;20052;-66
2021/12/27 00:32:17;;;;;;;24.83;17.48;;;-0.30;99.90;;;;;;5109280;28;20613;-66
2021/12/27 00:34:43;;;;;;;25.17;18.08;;;-0.40;99.90;;;;;;5091743;28;20044;-66
2021/12/27 00:37:09;;;;;;;25.92;16.98;;;-0.30;99.90;;;;;;5112428;28;20040;-66
2021/12/27 00:39:35;;;;;;;25.88;16.63;;;-0.30;99.90;;;;;;5104917;28;20118;-66
2021/12/27 00:42:02;;;;;;;25.60;17.77;;;-0.30;99.90;;;;;;5104778;28;20044;-66
2021/12/27 00:44:28;;;;;;;29.75;17.15;;;-0.20;99.90;;;;;;5093726;28;20066;-66
2021/12/27 00:46:54;;;;;;;25.60;16.23;;;-0.20;99.90;;;;;;5104690;28;20108;-66
2021/12/27 00:49:20;;;;;;;26.77;17.33;;;-0.10;99.90;;;;;;5104009;28;20056;-66
2021/12/27 00:51:47;;;;;;;26.63;17.48;;;-0.10;99.90;;;;;;5104287;28;20048;-66
2021/12/27 00:54:12;;;;;;;26.10;16.63;;;-0.10;99.90;;;;;;5106420;28;20046;-66
2021/12/27 00:56:38;;;;;;;24.35;15.82;;;0.00;99.90;;;;;;5103305;28;20104;-66
2021/12/27 00:59:04;;;;;;;24.73;16.33;;;-0.10;99.90;;;;;;5104384;28;20099;-66
2021/12/27 01:01:30;;;;;;;28.52;17.00;;;-0.10;99.90;;;;;;5104090;28;20051;-66
2021/12/27 01:03:55;;;;;;;26.55;17.63;;;0.00;99.90;;;;;;5106364;28;20048;-66
2021/12/27 01:06:21;;;;;;;26.42;17.02;;;0.00;99.90;;;;;;5105385;28;20040;-66
2021/12/27 01:08:47;;;;;;;25.92;16.35;;;0.00;99.90;;;;;;5103695;28;20052;-66
2021/12/27 01:11:24;;;;;;;26.40;16.83;;;0.00;99.90;;;;;;5104057;28;20070;-66
2021/12/27 01:16:39;;;;;;;26.85;17.63;;;0.00;99.90;;;;;;5106601;28;20066;-66
2021/12/27 01:19:06;;;;;;;25.63;16.98;;;0.00;99.90;;;;;;5104841;28;20036;-65
2021/12/27 01:21:32;;;;;;;25.33;16.42;;;0.00;99.90;;;;;;5103800;28;20056;-66
2021/12/27 01:23:58;;;;;;;27.83;17.73;;;-0.10;99.90;;;;;;5104607;28;20040;-66
2021/12/27 01:26:25;;;;;;;27.00;17.20;;;-0.10;99.90;;;;;;5104571;28;20055;-65
2021/12/27 01:28:52;;;;;;;25.10;17.02;;;0.00;99.90;;;;;;5104735;28;20054;-65
2021/12/27 01:31:18;;;;;;;25.95;17.25;;;-0.10;99.90;;;;;;5106857;28;20043;-66
2021/12/27 01:33:46;;;;;;;27.65;17.90;;;-0.10;99.90;;;;;;5105564;28;20077;-66
2021/12/27 01:36:13;;;;;;;25.42;17.58;;;0.00;99.90;;;;;;5087679;28;20568;-66
2021/12/27 01:38:40;;;;;;;26.70;17.83;;;-0.10;99.90;;;;;;5103407;28;20055;-65
2021/12/27 01:41:09;;;;;;;25.50;17.33;;;0.00;99.90;;;;;;5100912;28;20054;-66
2021/12/27 01:43:37;;;;;;;27.15;17.70;;;0.00;99.90;;;;;;5100611;28;20438;-66
2021/12/27 01:46:16;;;;;;;27.70;17.65;;;0.00;99.90;;;;;;5104550;28;20050;-66
2021/12/27 01:48:45;;;;;;;28.48;17.60;;;0.00;99.90;;;;;;5103078;28;20107;-66
2021/12/27 01:51:16;;;;;;;21.65;13.60;;;0.00;99.90;;;;;;5104470;28;20446;-66
2021/12/27 01:53:45;;;;;;;26.08;17.80;;;-0.10;99.90;;;;;;5105103;28;20051;-66
2021/12/27 01:56:12;;;;;;;28.38;18.35;;;-0.10;99.90;;;;;;5101705;28;20051;-66
2021/12/27 01:58:38;;;;;;;28.33;18.30;;;-0.10;99.90;;;;;;5087652;28;20555;-65
2021/12/27 02:01:07;;;;;;;24.50;17.17;;;0.00;99.90;;;;;;5105319;28;20044;-66
2021/12/27 02:03:34;;;;;;;27.10;18.27;;;0.00;99.90;;;;;;5111565;28;20048;-66
2021/12/27 02:06:00;;;;;;;31.48;18.85;;;0.10;99.90;;;;;;5105742;28;20056;-66
2021/12/27 02:08:27;;;;;;;29.52;18.60;;;0.10;99.90;;;;;;5105156;28;20066;-66
2021/12/27 02:10:53;;;;;;;24.92;16.80;;;0.00;99.90;;;;;;5108006;28;20458;-66
2021/12/27 02:13:19;;;;;;;27.85;18.20;;;0.00;99.90;;;;;;5098264;28;20535;-65
2021/12/27 02:15:46;;;;;;;26.67;17.95;;;0.00;99.90;;;;;;5119844;28;20047;-66
2021/12/27 02:18:12;;;;;;;28.13;17.77;;;0.00;99.90;;;;;;5103901;28;20105;-66
2021/12/27 02:20:40;;;;;;;29.13;19.20;;;0.00;99.90;;;;;;5103997;28;20052;-66
2021/12/27 02:23:12;;;;;;;29.05;17.90;;;0.00;99.90;;;;;;5103101;28;20521;-65
2021/12/27 02:25:39;;;;;;;28.25;18.65;;;0.00;99.90;;;;;;5110945;28;20088;-66
2021/12/27 02:28:06;;;;;;;28.02;18.10;;;0.00;99.90;;;;;;5104228;28;20044;-65
2021/12/27 02:30:33;;;;;;;28.52;18.80;;;0.10;99.90;;;;;;5101748;28;20135;-66
2021/12/27 02:33:05;;;;;;;28.20;17.73;;;0.20;99.90;;;;;;5105399;28;20071;-65
2021/12/27 02:35:35;;;;;;;25.48;17.90;;;0.20;99.90;;;;;;5102048;28;20060;-65
2021/12/27 02:38:02;;;;;;;29.48;19.33;;;0.20;99.90;;;;;;5103410;28;20516;-66
2021/12/27 02:40:30;;;;;;;28.02;18.23;;;0.20;99.90;;;;;;5103170;28;20048;-66
2021/12/27 02:43:11;;;;;;;31.45;18.75;;;0.20;99.90;;;;;;5102524;28;20052;-66
2021/12/27 02:45:46;;;;;;;29.95;19.23;;;0.20;99.90;;;;;;5101561;28;20052;-65
2021/12/27 02:48:13;;;;;;;27.23;19.33;;;0.20;99.90;;;;;;5105301;28;20063;-66
2021/12/27 02:50:40;;;;;;;29.60;19.08;;;0.20;99.90;;;;;;5103027;28;20048;-66
2021/12/27 02:53:07;;;;;;;26.98;18.60;;;0.20;99.90;;;;;;5120231;28;20056;-65
2021/12/27 02:55:33;;;;;;;30.55;18.85;;;0.20;99.90;;;;;;5104234;28;20131;-66
2021/12/27 02:57:58;;;;;;;28.23;18.25;;;0.10;99.90;;;;;;5119628;28;20043;-65
2021/12/27 03:00:27;;;;;;;27.30;18.55;;;0.10;99.90;;;;;;5103905;28;20511;-66
2021/12/27 03:02:54;;;;;;;27.23;18.13;;;0.20;99.90;;;;;;5102317;28;20052;-65
2021/12/27 03:05:21;;;;;;;29.00;18.52;;;0.20;99.90;;;;;;5102191;28;20123;-66
2021/12/27 03:07:49;;;;;;;29.15;19.77;;;0.20;99.90;;;;;;5104350;28;20056;-66
2021/12/27 03:10:19;;;;;;;26.02;18.83;;;0.30;99.90;;;;;;5103636;28;20111;-65
2021/12/27 03:12:46;;;;;;;29.60;19.27;;;0.20;99.90;;;;;;5105663;28;20079;-66
2021/12/27 03:15:15;;;;;;;28.13;18.65;;;0.20;99.90;;;;;;5103207;28;20286;-66
2021/12/27 03:17:42;;;;;;;27.63;18.65;;;0.20;99.90;;;;;;5103728;28;20048;-65
2021/12/27 03:20:10;;;;;;;28.55;19.50;;;0.20;99.90;;;;;;5103284;28;20044;-66
2021/12/27 03:22:40;;;;;;;28.02;19.38;;;0.20;99.90;;;;;;5103007;28;20043;-66
2021/12/27 03:25:08;;;;;;;27.30;18.95;;;0.20;99.90;;;;;;5104842;28;20571;-65
2021/12/27 03:27:34;;;;;;;26.88;18.02;;;0.20;99.90;;;;;;5087810;28;20044;-66
2021/12/27 03:29:59;;;;;;;27.58;18.85;;;0.30;99.90;;;;;;5101580;28;20048;-66
2021/12/27 03:32:25;;;;;;;30.20;19.15;;;0.30;99.90;;;;;;5102443;28;20052;-66
2021/12/27 03:34:57;;;;;;;29.75;19.00;;;0.30;99.90;;;;;;5104432;28;20040;-66
2021/12/27 03:37:24;;;;;;;30.65;19.73;;;0.20;99.90;;;;;;5086202;28;20051;-65
2021/12/27 03:39:50;;;;;;;31.02;19.05;;;0.30;99.90;;;;;;5103966;28;20048;-65
2021/12/27 03:42:17;;;;;;;26.38;18.33;;;0.20;99.90;;;;;;5099246;28;20096;-65
2021/12/27 03:44:44;;;;;;;29.15;19.50;;;0.30;99.90;;;;;;5103423;28;20058;-65
2021/12/27 03:47:11;;;;;;;29.45;20.02;;;0.30;99.90;;;;;;5105407;28;20048;-65
2021/12/27 03:49:38;;;;;;;26.42;18.77;;;0.40;99.90;;;;;;5105279;28;20051;-66
2021/12/27 03:52:04;;;;;;;31.27;19.98;;;0.40;99.90;;;;;;5105530;28;20083;-65
2021/12/27 03:54:30;;;;;;;28.27;19.10;;;0.40;99.90;;;;;;5106107;28;20210;-66
2021/12/27 03:56:56;;;;;;;29.52;19.85;;;0.50;99.90;;;;;;5105566;28;20124;-65
2021/12/27 03:59:34;;;;;;;26.63;18.23;;;0.40;99.90;;;;;;5106769;28;20040;-66
2021/12/27 04:02:01;;;;;;;29.25;18.90;;;0.30;99.90;;;;;;5106788;28;20051;-66
2021/12/27 04:04:26;;;;;;;29.00;19.88;;;0.40;99.90;;;;;;5106310;28;20044;-65
2021/12/27 04:06:52;;;;;;;29.23;20.33;;;0.40;99.90;;;;;;5107702;28;20055;-66
2021/12/27 04:09:19;;;;;;;26.95;18.98;;;0.30;99.90;;;;;;5099581;28;20051;-65
2021/12/27 04:11:45;;;;;;;33.20;20.50;;;0.30;99.90;;;;;;5104889;28;20105;-65
2021/12/27 04:14:11;;;;;;;29.17;19.27;;;0.40;99.90;;;;;;5104886;28;20035;-66
2021/12/27 04:16:36;;;;;;;31.27;19.50;;;0.40;99.90;;;;;;5105232;28;20048;-66
2021/12/27 04:19:03;;;;;;;26.25;18.27;;;0.40;99.90;;;;;;5105960;28;20044;-65
2021/12/27 04:21:28;;;;;;;28.20;19.60;;;0.40;99.90;;;;;;5104830;28;20079;-66
2021/12/27 04:23:54;;;;;;;28.50;19.23;;;0.50;99.90;;;;;;5105063;28;20052;-65
2021/12/27 04:26:22;;;;;;;27.58;18.85;;;0.60;99.90;;;;;;5105395;28;20044;-66
2021/12/27 04:28:49;;;;;;;30.40;19.17;;;0.50;99.90;;;;;;5102123;28;20078;-65
2021/12/27 04:31:14;;;;;;;31.67;19.60;;;0.50;99.90;;;;;;5107639;28;20040;-66
2021/12/27 04:33:41;;;;;;;30.27;20.30;;;0.50;99.90;;;;;;5105441;28;20079;-65
2021/12/27 04:36:06;;;;;;;30.25;20.52;;;0.50;99.90;;;;;;5104945;28;20138;-66
2021/12/27 04:38:33;;;;;;;31.27;19.48;;;0.50;99.90;;;;;;5106748;28;20040;-65
2021/12/27 04:40:59;;;;;;;31.73;20.23;;;0.60;99.90;;;;;;5105061;28;20098;-65
2021/12/27 04:43:25;;;;;;;29.70;19.88;;;0.50;99.90;;;;;;5107887;28;20104;-66
2021/12/27 04:45:52;;;;;;;32.00;21.08;;;0.60;99.90;;;;;;5099251;28;20052;-66
2021/12/27 04:48:21;;;;;;;32.75;20.60;;;0.40;99.90;;;;;;5105612;28;20059;-65
2021/12/27 04:50:47;;;;;;;29.92;20.10;;;0.50;99.90;;;;;;5104694;28;20055;-65
2021/12/27 04:53:13;;;;;;;31.80;19.98;;;0.50;99.90;;;;;;5112852;28;20057;-65
2021/12/27 04:55:39;;;;;;;30.58;20.77;;;0.50;99.90;;;;;;5112987;28;20100;-65
2021/12/27 04:58:08;;;;;;;29.98;20.17;;;0.50;99.90;;;;;;5119183;28;20039;-66
2021/12/27 05:00:35;;;;;;;29.98;19.95;;;0.50;99.90;;;;;;5120413;28;20395;-66
2021/12/27 05:03:00;;;;;;;32.25;19.80;;;0.50;99.90;;;;;;5118699;28;20497;-66
2021/12/27 05:05:27;;;;;;;33.60;20.05;;;0.50;99.90;;;;;;5117668;28;20110;-66
2021/12/27 05:07:53;;;;;;;29.52;20.58;;;0.60;99.90;;;;;;5118716;28;20040;-66
2021/12/27 05:10:19;;;;;;;31.33;19.45;;;0.70;99.90;;;;;;5112041;28;20047;-66
2021/12/27 05:12:45;;;;;;;30.48;18.90;;;0.60;99.90;;;;;;5114049;28;20044;-66
2021/12/27 05:15:11;;;;;;;26.92;18.45;;;0.70;99.90;;;;;;5120124;28;20051;-66
2021/12/27 05:17:37;;;;;;;28.42;19.42;;;0.70;99.90;;;;;;5107913;28;20048;-66
2021/12/27 05:20:05;;;;;;;31.83;18.45;;;0.60;99.90;;;;;;5109583;28;20035;-66
2021/12/27 05:22:34;;;;;;;31.63;19.80;;;0.60;99.90;;;;;;5104610;28;20063;-66
2021/12/27 05:25:00;;;;;;;28.88;19.45;;;0.60;99.90;;;;;;5101734;28;20043;-66
2021/12/27 05:27:26;;;;;;;31.65;21.30;;;0.70;99.90;;;;;;5103986;28;20058;-66
2021/12/27 05:29:52;;;;;;;30.25;20.45;;;0.70;99.90;;;;;;5104627;28;20060;-65
2021/12/27 05:32:17;;;;;;;31.13;21.55;;;0.60;99.90;;;;;;5103696;28;20308;-66
2021/12/27 05:34:43;;;;;;;29.20;20.02;;;0.70;99.90;;;;;;5104560;28;20108;-66
2021/12/27 05:37:09;;;;;;;32.20;19.20;;;0.70;99.90;;;;;;5103444;28;20071;-65
2021/12/27 05:39:35;;;;;;;30.10;20.27;;;0.70;99.90;;;;;;5102699;28;20074;-65
2021/12/27 05:42:01;;;;;;;31.48;20.27;;;0.80;99.90;;;;;;5102555;28;20085;-66
2021/12/27 05:44:27;;;;;;;30.35;19.15;;;0.70;99.90;;;;;;5099479;28;20040;-65
2021/12/27 05:46:54;;;;;;;29.35;19.00;;;0.70;99.90;;;;;;5109909;28;20055;-66
2021/12/27 05:49:21;;;;;;;28.65;19.63;;;0.70;99.90;;;;;;5103700;28;20052;-65
2021/12/27 05:51:47;;;;;;;30.30;19.52;;;0.70;99.90;;;;;;5104436;28;20127;-65
2021/12/27 05:54:14;;;;;;;30.05;21.52;;;0.80;99.90;;;;;;5105049;28;20063;-65
2021/12/27 05:56:41;;;;;;;31.48;20.35;;;0.70;99.90;;;;;;5103017;28;20083;-65
2021/12/27 05:59:07;;;;;;;29.90;20.80;;;0.80;99.90;;;;;;5120900;28;20040;-66
2021/12/27 06:01:33;;;;;;;29.52;20.02;;;0.70;99.90;;;;;;5102849;28;20044;-65
2021/12/27 06:03:59;;;;;;;34.60;21.13;;;0.60;99.90;;;;;;5103237;28;20044;-66
2021/12/27 06:06:26;;;;;;;30.60;20.63;;;0.60;99.90;;;;;;5104157;28;20067;-66
2021/12/27 06:08:52;;;;;;;33.75;21.85;;;0.60;99.90;;;;;;5120147;28;20058;-66
2021/12/27 06:11:18;;;;;;;31.65;20.95;;;0.50;99.90;;;;;;5102278;28;20040;-66
2021/12/27 06:13:44;;;;;;;31.80;22.25;;;0.60;99.90;;;;;;5104686;28;20112;-65
2021/12/27 06:16:10;;;;;;;31.40;22.27;;;0.60;99.90;;;;;;5083994;28;20065;-66
2021/12/27 06:18:37;;;;;;;32.40;20.75;;;0.60;99.90;;;;;;5102804;28;20044;-66
2021/12/27 06:21:04;;;;;;;30.92;20.77;;;0.60;99.90;;;;;;5102407;28;20048;-65
2021/12/27 06:23:33;;;;;;;32.30;21.38;;;0.60;99.90;;;;;;5103268;28;20121;-65
2021/12/27 06:25:59;;;;;;;32.95;20.77;;;0.60;99.90;;;;;;5104171;28;20058;-65
2021/12/27 06:28:25;;;;;;;32.88;20.83;;;0.60;99.90;;;;;;5103010;28;20086;-65
2021/12/27 06:30:51;;;;;;;32.83;21.13;;;0.60;99.90;;;;;;5103683;28;20040;-65
2021/12/27 06:33:17;;;;;;;31.17;21.02;;;0.50;99.90;;;;;;5102468;28;20043;-65
2021/12/27 06:35:43;;;;;;;33.33;21.52;;;0.50;99.90;;;;;;5102910;28;20040;-65
2021/12/27 06:38:09;;;;;;;31.73;21.73;;;0.60;99.90;;;;;;5104051;28;20484;-65
2021/12/27 06:40:35;;;;;;;32.03;21.38;;;0.60;99.90;;;;;;5102912;28;20044;-65
2021/12/27 06:43:01;;;;;;;31.80;21.42;;;0.60;99.90;;;;;;5105713;28;20044;-65
2021/12/27 06:45:27;;;;;;;32.20;20.92;;;0.60;99.90;;;;;;5103433;28;20070;-65
2021/12/27 06:47:53;;;;;;;31.58;21.15;;;0.60;99.90;;;;;;5104265;28;20079;-65
2021/12/27 06:50:19;;;;;;;33.78;22.02;;;0.60;99.90;;;;;;5103432;28;20044;-65
2021/12/27 06:52:45;;;;;;;31.50;20.65;;;0.60;99.90;;;;;;5095908;28;20466;-65
2021/12/27 06:55:11;;;;;;;33.92;22.75;;;0.60;99.90;;;;;;5104293;28;20513;-65
2021/12/27 06:57:38;;;;;;;33.15;21.83;;;0.70;99.90;;;;;;5104365;28;20186;-65
2021/12/27 07:00:07;;;;;;;31.10;20.83;;;0.60;99.90;;;;;;5099877;28;20084;-65
2021/12/27 07:02:32;;;;;;;31.25;21.13;;;0.60;99.90;;;;;;5085368;28;20123;-65
2021/12/27 07:04:58;;;;;;;33.47;20.95;;;0.60;99.90;;;;;;5102618;28;20128;-65
2021/12/27 07:07:24;;;;;;;33.38;21.73;;;0.60;99.90;;;;;;5105470;28;20051;-65
2021/12/27 07:09:50;;;;;;;33.53;21.10;;;0.70;99.90;;;;;;5103452;28;20039;-65
2021/12/27 07:12:16;;;;;;;34.30;22.98;;;0.70;99.90;;;;;;5102139;28;20391;-65
2021/12/27 07:14:42;;;;;;;34.03;22.02;;;0.70;99.90;;;;;;5098691;28;20047;-65
2021/12/27 07:17:09;;;;;;;33.90;22.42;;;0.60;99.90;;;;;;5103722;28;20080;-66
2021/12/27 07:19:35;;;;;;;36.13;23.20;;;0.60;99.90;;;;;;5120309;28;20123;-65
2021/12/27 07:22:00;;;;;;;36.78;23.02;;;0.60;99.90;;;;;;5106126;28;20071;-65
2021/12/27 07:24:26;;;;;;;34.45;22.48;;;0.60;99.90;;;;;;5106294;28;20048;-65
2021/12/27 07:26:52;;;;;;;43.60;24.67;;;0.60;99.90;;;;;;5112893;28;20044;-65
2021/12/27 07:29:20;;;;;;;39.75;23.88;;;0.60;99.90;;;;;;5106051;28;20040;-65
2021/12/27 07:31:45;;;;;;;34.83;22.80;;;0.60;99.90;;;;;;5110276;28;20099;-66
2021/12/27 07:34:13;;;;;;;33.72;22.45;;;0.60;99.90;;;;;;5106201;28;20052;-66
2021/12/27 07:36:39;;;;;;;35.13;22.88;;;0.60;99.90;;;;;;5120307;28;20101;-66
2021/12/27 07:39:06;;;;;;;36.30;22.75;;;0.60;99.90;;;;;;5103486;28;20048;-66
2021/12/27 07:41:32;;;;;;;34.60;22.08;;;0.60;99.90;;;;;;5108584;28;20107;-66
2021/12/27 07:43:57;;;;;;;37.45;23.35;;;0.60;99.90;;;;;;5099721;28;20071;-65
2021/12/27 07:46:24;;;;;;;35.67;22.17;;;0.60;99.90;;;;;;5105012;28;20048;-66
2021/12/27 07:48:51;;;;;;;34.38;21.60;;;0.60;99.90;;;;;;5107036;28;20068;-65
2021/12/27 07:51:16;;;;;;;36.38;23.85;;;0.60;99.90;;;;;;5106369;28;20059;-66
2021/12/27 07:53:42;;;;;;;33.92;21.80;;;0.70;99.90;;;;;;5113107;28;20039;-66
2021/12/27 07:56:09;;;;;;;37.03;22.70;;;0.70;99.90;;;;;;5105291;28;20077;-66
2021/12/27 07:58:35;;;;;;;35.05;22.63;;;0.80;99.90;;;;;;5101036;28;20051;-66
2021/12/27 08:01:01;;;;;;;33.58;21.42;;;0.70;99.90;;;;;;5107686;28;20046;-66
2021/12/27 08:03:27;;;;;;;35.97;22.15;;;0.70;99.90;;;;;;5107620;28;20051;-65
2021/12/27 08:05:53;;;;;;;35.35;22.65;;;0.80;99.90;;;;;;5106852;28;20056;-66
2021/12/27 08:08:19;;;;;;;35.05;21.95;;;0.80;99.90;;;;;;5106332;28;20051;-66
2021/12/27 08:10:45;;;;;;;35.83;22.55;;;0.80;99.90;;;;;;5104921;28;20048;-65
2021/12/27 08:13:11;;;;;;;33.67;21.23;;;0.90;99.90;;;;;;5106456;28;20059;-65
2021/12/27 08:15:37;;;;;;;38.53;23.23;;;0.90;99.90;;;;;;5105824;28;20123;-66
2021/12/27 08:18:03;;;;;;;37.88;22.90;;;1.00;99.90;;;;;;5105216;28;20051;-65
2021/12/27 08:20:29;;;;;;;35.03;21.95;;;0.90;99.90;;;;;;5106144;28;20041;-65
2021/12/27 08:22:54;;;;;;;36.42;22.65;;;0.90;99.90;;;;;;5104585;28;20040;-65
2021/12/27 08:25:20;;;;;;;38.55;22.20;;;1.00;99.90;;;;;;5106304;28;20052;-66
2021/12/27 08:27:46;;;;;;;38.55;22.85;;;0.90;99.90;;;;;;5122673;28;20044;-65
2021/12/27 08:30:12;;;;;;;39.40;24.48;;;1.00;99.90;;;;;;5106013;28;20051;-65
2021/12/27 08:32:41;;;;;;;41.20;24.20;;;1.00;99.90;;;;;;5106095;28;20065;-65
2021/12/27 08:35:08;;;;;;;37.58;21.80;;;1.00;99.90;;;;;;5105798;28;20044;-65
2021/12/27 08:37:34;;;;;;;39.47;23.17;;;1.00;99.90;;;;;;5088936;28;20044;-66
2021/12/27 08:40:00;;;;;;;35.50;22.08;;;1.00;99.90;;;;;;5106839;28;20054;-65
2021/12/27 08:42:27;;;;;;;36.08;22.92;;;1.10;99.90;;;;;;5121503;28;20060;-65
2021/12/27 08:44:53;;;;;;;40.28;24.58;;;1.10;99.90;;;;;;5108282;28;20504;-65
2021/12/27 08:47:19;;;;;;;40.22;23.20;;;1.10;99.90;;;;;;5110091;28;20061;-65
2021/12/27 08:49:45;;;;;;;39.95;22.10;;;1.10;99.90;;;;;;5105285;28;20150;-66
2021/12/27 08:52:11;;;;;;;42.38;23.70;;;1.10;99.90;;;;;;5105444;28;20085;-66
2021/12/27 08:54:37;;;;;;;39.65;23.58;;;1.10;99.90;;;;;;5111049;28;20036;-66
2021/12/27 08:57:05;;;;;;;41.47;23.83;;;1.10;99.90;;;;;;5104040;28;20047;-65
2021/12/27 08:59:32;;;;;;;38.33;21.15;;;1.10;99.90;;;;;;5115754;28;20059;-66
2021/12/27 09:01:58;;;;;;;42.08;22.55;;;1.20;99.90;;;;;;5109869;28;20040;-66
2021/12/27 09:04:24;;;;;;;43.53;23.30;;;1.20;99.90;;;;;;5104838;28;20040;-66
2021/12/27 09:06:50;;;;;;;46.38;25.40;;;1.20;99.90;;;;;;5104652;28;20069;-65
2021/12/27 09:09:16;;;;;;;48.20;23.67;;;1.20;99.90;;;;;;5104569;28;20119;-65
2021/12/27 09:11:44;;;;;;;38.45;22.40;;;1.20;99.90;;;;;;5103789;28;20475;-65
2021/12/27 09:14:10;;;;;;;45.85;24.38;;;1.20;99.90;;;;;;5102279;28;20040;-67
2021/12/27 09:16:36;;;;;;;46.40;23.83;;;1.20;99.90;;;;;;5105440;28;20079;-65
2021/12/27 09:19:02;;;;;;;50.90;24.23;;;1.20;99.90;;;;;;5106687;28;20039;-65
2021/12/27 09:21:28;;;;;;;47.53;23.52;;;1.30;99.90;;;;;;5117489;28;20131;-65
2021/12/27 09:23:54;;;;;;;47.10;25.42;;;1.30;99.90;;;;;;5120213;28;20044;-65
2021/12/27 09:26:19;;;;;;;53.67;25.10;;;1.30;99.90;;;;;;5114220;28;20039;-66
2021/12/27 09:28:45;;;;;;;51.28;25.08;;;1.30;99.90;;;;;;5118218;28;20040;-66
2021/12/27 09:31:11;;;;;;;47.58;24.45;;;1.30;99.90;;;;;;5119119;28;20044;-65
2021/12/27 09:33:37;;;;;;;49.80;25.02;;;1.30;99.90;;;;;;5118893;28;20056;-65
2021/12/27 09:36:03;;;;;;;49.63;26.83;;;1.50;99.90;;;;;;5114361;28;20096;-66
2021/12/27 09:38:28;;;;;;;50.97;24.50;;;1.50;99.90;;;;;;5122811;28;20376;-66
2021/12/27 09:40:55;;;;;;;64.50;27.63;;;1.40;99.90;;;;;;5119178;28;20047;-65
2021/12/27 09:43:22;;;;;;;58.28;25.95;;;1.50;99.90;;;;;;5118181;28;20090;-66
2021/12/27 09:45:48;;;;;;;55.17;26.30;;;1.50;99.90;;;;;;5121063;28;20043;-66
2021/12/27 09:48:13;;;;;;;60.10;27.55;;;1.60;99.90;;;;;;5118917;28;20046;-65
2021/12/27 09:50:46;;;;;;;67.80;26.92;;;1.50;99.90;;;;;;5114693;28;20058;-65
2021/12/27 09:53:12;;;;;;;54.92;26.52;;;1.50;99.90;;;;;;5112699;28;20040;-65
2021/12/27 09:55:38;;;;;;;63.80;30.73;;;1.60;99.90;;;;;;5109579;28;20039;-66
2021/12/27 09:58:05;;;;;;;73.38;36.80;;;1.70;99.90;;;;;;5114457;28;20059;-66
2021/12/27 10:00:32;;;;;;;70.75;30.60;;;1.60;99.90;;;;;;5112836;28;20063;-66
2021/12/27 10:02:58;;;;;;;67.18;28.10;;;1.70;99.90;;;;;;5113334;28;20055;-66
2021/12/27 10:05:27;;;;;;;68.28;29.05;;;1.70;99.90;;;;;;5113116;28;20095;-66
2021/12/27 10:07:53;;;;;;;73.55;29.65;;;1.70;99.90;;;;;;5114299;28;20046;-66
2021/12/27 10:10:19;;;;;;;76.97;28.77;;;1.60;99.90;;;;;;5112290;28;20071;-65
2021/12/27 10:12:46;;;;;;;71.75;29.17;;;1.70;99.90;;;;;;5107909;28;20052;-67
2021/12/27 10:15:15;;;;;;;72.82;30.85;;;1.80;99.90;;;;;;5112075;28;20051;-71
2021/12/27 10:17:42;;;;;;;88.15;33.70;;;1.70;99.90;;;;;;5077169;28;20054;-64
2021/12/27 10:20:13;;;;;;;84.57;37.78;;;1.80;99.90;;;;;;5084688;28;20464;-66
2021/12/27 10:22:45;;;;;;;76.13;34.33;;;1.80;99.90;;;;;;5081764;28;20100;-66
2021/12/27 10:25:28;;;;;;;74.63;30.73;;;1.80;99.90;;;;;;5085707;28;20048;-65
2021/12/27 10:27:56;;;;;;;73.53;30.88;;;1.80;99.90;;;;;;5103352;28;20051;-65
2021/12/27 10:30:28;;;;;;;77.18;32.40;;;1.70;99.90;;;;;;5102309;28;20057;-66
2021/12/27 10:33:07;;;;;;;80.00;31.15;;;1.80;99.90;;;;;;5099577;28;20075;-66
2021/12/27 10:35:39;;;;;;;76.22;30.05;;;1.70;99.90;;;;;;5091451;27;20582;-65
2021/12/27 10:38:21;;;;;;;81.03;28.52;;;1.80;99.90;;;;;;5102638;28;20047;-66
2021/12/27 10:41:09;;;;;;;92.80;33.40;;;1.90;99.90;;;;;;5093588;28;20144;-65
2021/12/27 10:43:46;;;;;;;78.50;27.92;;;1.90;99.90;;;;;;5095828;28;20294;-66
2021/12/27 10:46:18;;;;;;;87.63;31.75;;;1.90;99.90;;;;;;5088732;28;20047;-65
2021/12/27 10:48:46;;;;;;;77.78;29.45;;;1.90;99.90;;;;;;5102411;28;20048;-65
2021/12/27 10:51:13;;;;;;;75.53;30.25;;;1.90;99.90;;;;;;5103761;28;20047;-65
2021/12/27 10:53:55;;;;;;;81.40;30.83;;;1.90;99.90;;;;;;5097141;28;20048;-64
2021/12/27 10:56:23;;;;;;;86.40;30.25;;;2.00;99.90;;;;;;5094129;28;20347;-65
2021/12/27 10:58:57;;;;;;;84.28;33.10;;;1.90;99.90;;;;;;5103437;28;20412;-64
2021/12/27 11:01:26;;;;;;;87.65;32.38;;;2.10;99.90;;;;;;5091727;28;20039;-64
2021/12/27 11:03:55;;;;;;;82.78;34.13;;;2.00;99.90;;;;;;5097183;28;20063;-64
2021/12/27 11:06:27;;;;;;;96.95;35.65;;;2.00;99.90;;;;;;5088978;28;20051;-65
2021/12/27 11:08:53;;;;;;;85.60;32.10;;;2.10;99.90;;;;;;5094435;28;20161;-65
2021/12/27 11:11:24;;;;;;;86.25;32.22;;;2.10;99.90;;;;;;5076243;28;20044;-64
2021/12/27 11:13:54;;;;;;;90.30;32.10;;;2.00;99.90;;;;;;5084684;28;20337;-64
2021/12/27 11:16:20;;;;;;;88.85;32.55;;;2.00;99.90;;;;;;5099515;28;20059;-64
2021/12/27 11:18:46;;;;;;;87.07;30.42;;;2.00;99.90;;;;;;5082039;28;20043;-63
2021/12/27 11:21:22;;;;;;;80.95;30.40;;;2.00;99.90;;;;;;5089974;28;20233;-63
2021/12/27 11:23:52;;;;;;;100.07;32.38;;;2.00;99.90;;;;;;5106179;28;20106;-65
2021/12/27 11:26:24;;;;;;;;;;;2.10;99.90;;;;;;5091359;28;20127;-67
2021/12/27 11:28:49;;;;;;;81.05;30.80;;;2.10;99.90;;;;;;5097304;28;20112;-66
2021/12/27 11:31:24;;;;;;;101.97;32.45;;;2.10;99.90;;;;;;5081139;28;20111;-66
2021/12/27 11:33:54;;;;;;;86.03;31.10;;;2.10;99.90;;;;;;5096443;28;20039;-69
2021/12/27 11:36:30;;;;;;;98.10;32.83;;;2.10;99.90;;;;;;5092838;28;20044;-70
2021/12/27 11:38:57;;;;;;;103.30;35.45;;;2.10;99.90;;;;;;5099753;28;20495;-70
2021/12/27 11:42:01;;;;;;;110.32;33.15;;;2.10;99.90;;;;;;5088038;28;20051;-70
2021/12/27 11:44:58;;;;;;;94.93;32.00;;;2.10;99.90;;;;;;5072498;28;20064;-70
2021/12/27 11:47:32;;;;;;;99.25;32.28;;;2.20;99.90;;;;;;5075496;28;20092;-70
2021/12/27 11:50:01;;;;;;;110.18;33.25;;;2.10;99.90;;;;;;5104367;28;20047;-70
2021/12/27 11:52:29;;;;;;;118.40;34.35;;;2.20;99.90;;;;;;5108168;28;20055;-70
2021/12/27 11:55:20;;;;;;;111.53;35.25;;;2.10;99.90;;;;;;5102107;28;20476;-70
2021/12/27 11:57:47;;;;;;;115.80;33.53;;;2.20;99.90;;;;;;5055851;28;20048;-70
2021/12/27 12:00:23;;;;;;;106.65;31.13;;;2.20;99.90;;;;;;5076269;28;20076;-75
2021/12/27 12:03:01;;;;;;;108.15;32.25;;;2.20;99.90;;;;;;5089497;28;20071;-67
2021/12/27 12:05:45;;;;;;;110.47;33.20;;;2.50;99.90;;;;;;5073100;28;20060;-67
2021/12/27 12:08:37;;;;;;;107.78;34.78;;;2.50;99.90;;;;;;5100783;27;20042;-69
2021/12/27 12:11:08;;;;;;;123.68;35.38;;;2.40;99.90;;;;;;5096291;28;20048;-70
2021/12/27 12:13:37;;;;;;;133.20;38.00;;;2.40;99.90;;;;;;5095513;28;20050;-66
2021/12/27 12:16:28;;;;;;;125.55;38.10;;;2.30;99.90;;;;;;5088889;28;20139;-64
2021/12/27 12:18:54;;;;;;;134.23;37.35;;;2.40;99.90;;;;;;5094307;27;20051;-68
2021/12/27 12:21:47;;;;;;;113.57;35.88;;;2.30;99.90;;;;;;5089953;28;20082;-70
2021/12/27 12:24:12;;;;;;;134.52;38.15;;;2.40;99.90;;;;;;5102250;28;20126;-66
2021/12/27 12:27:03;;;;;;;116.45;36.70;;;2.30;99.90;;;;;;5102362;27;20621;-69
2021/12/27 12:29:41;;;;;;;147.65;39.05;;;2.40;99.90;;;;;;5114276;28;20382;-69
2021/12/27 12:32:13;;;;;;;133.30;36.42;;;2.40;99.90;;;;;;5079946;28;20051;-69
2021/12/27 12:34:40;;;;;;;140.38;37.92;;;2.30;99.90;;;;;;5103816;28;20085;-70
2021/12/27 12:37:11;;;;;;;148.32;37.40;;;2.40;99.90;;;;;;5081475;28;20535;-68
2021/12/27 12:39:44;;;;;;;170.52;41.38;;;2.40;99.90;;;;;;5110582;27;20052;-68
2021/12/27 12:42:21;;;;;;;136.73;35.35;;;2.30;99.90;;;;;;5112523;27;20070;-67